Time;durP1;ratioP1;P1;durP2;ratioP2;P2;SDS_P1;SDS_P2;PMS_P1;PMS_P2;Temp;Humidity;BMP_temperature;BMP_pressure;BME280_temperature;BME280_humidity;BME280_pressure;Samples;Min_cycle;Max_cycle;Signal;HPM_P1;HPM_P2
2021/04/19 00:01:55;;;;;;;11.60;8.45;;;;;;;;;;5063692;28;20211;-65
2021/04/19 00:04:23;;;;;;;9.65;8.27;;;;;;;;;;5042891;28;20578;-66
2021/04/19 00:06:50;;;;;;;12.48;8.82;;;;;;;;;;5056059;28;20228;-64
2021/04/19 00:09:16;;;;;;;16.80;7.60;;;;;;;;;;5056364;28;20217;-65
2021/04/19 00:11:43;;;;;;;11.20;8.95;;;;;;;;;;5056055;28;20192;-64
2021/04/19 00:14:11;;;;;;;11.93;8.77;;;;;;;;;;5056253;28;20196;-64
2021/04/19 00:16:38;;;;;;;12.38;9.57;;;;;;;;;;5055912;28;20219;-64
2021/04/19 00:19:04;;;;;;;12.57;9.73;;;;;;;;;;5055982;28;20215;-65
2021/04/19 00:21:31;;;;;;;11.75;9.73;;;;;;;;;;5056174;28;20668;-65
2021/04/19 00:24:01;;;;;;;12.35;9.27;;;;;;;;;;5055864;28;20200;-65
2021/04/19 00:26:27;;;;;;;10.52;9.25;;;;;;;;;;5055557;28;20213;-65
2021/04/19 00:28:54;;;;;;;13.23;9.52;;;;;;;;;;5055795;28;20549;-65
2021/04/19 00:31:21;;;;;;;12.05;10.38;;;;;;;;;;5055751;28;20193;-65
2021/04/19 00:33:47;;;;;;;11.10;10.00;;;;;;;;;;5037368;28;20250;-64
2021/04/19 00:36:14;;;;;;;13.93;9.75;;;;;;;;;;5055256;28;20583;-65
2021/04/19 00:38:41;;;;;;;12.43;10.32;;;;;;;;;;5055531;28;20189;-65
2021/04/19 00:41:08;;;;;;;13.27;9.35;;;;;;;;;;5055304;28;20301;-65
2021/04/19 00:43:34;;;;;;;12.00;9.05;;;;;;;;;;5037821;28;20569;-65
2021/04/19 00:46:03;;;;;;;12.75;10.07;;;;;;;;;;5055791;28;20221;-65
2021/04/19 00:48:37;;;;;;;12.00;9.27;;;;;;;;;;5023842;28;20184;-65
2021/04/19 00:51:04;;;;;;;12.65;9.10;;;;;;;;;;5056290;28;20212;-65
2021/04/19 00:53:31;;;;;;;11.93;9.50;;;;;;;;;;5055644;28;20613;-65
2021/04/19 00:55:58;;;;;;;12.15;8.88;;;;;;;;;;5055297;28;20197;-65
2021/04/19 00:58:30;;;;;;;14.57;9.73;;;;;;;;;;5055156;28;20352;-65
2021/04/19 01:00:57;;;;;;;11.95;9.48;;;;;;;;;;5038409;28;20219;-67
2021/04/19 01:03:24;;;;;;;14.10;10.23;;;;;;;;;;5056665;28;20202;-67
2021/04/19 01:05:51;;;;;;;11.57;9.35;;;;;;;;;;5057306;28;20620;-67
2021/04/19 01:08:17;;;;;;;11.35;8.93;;;;;;;;;;5056993;28;20641;-67
2021/04/19 01:10:44;;;;;;;12.90;10.48;;;;;;;;;;5056956;28;20242;-67
2021/04/19 01:13:11;;;;;;;12.50;9.57;;;;;;;;;;5056827;28;20211;-67
2021/04/19 01:15:38;;;;;;;13.63;11.35;;;;;;;;;;5057200;28;20223;-67
2021/04/19 01:18:05;;;;;;;15.20;10.65;;;;;;;;;;5056673;28;20279;-67
2021/04/19 01:20:35;;;;;;;11.70;9.55;;;;;;;;;;5057136;28;20530;-67
2021/04/19 01:23:02;;;;;;;17.17;11.27;;;;;;;;;;5056489;28;20177;-67
2021/04/19 01:25:30;;;;;;;14.05;11.20;;;;;;;;;;5056933;28;20212;-67
2021/04/19 01:27:57;;;;;;;15.55;9.98;;;;;;;;;;5056523;28;20593;-67
2021/04/19 01:30:25;;;;;;;12.90;9.70;;;;;;;;;;5056553;28;20211;-67
2021/04/19 01:32:52;;;;;;;11.43;9.45;;;;;;;;;;5056145;28;20197;-67
2021/04/19 01:35:19;;;;;;;12.05;10.48;;;;;;;;;;5056519;28;20280;-67
2021/04/19 01:37:45;;;;;;;11.50;9.60;;;;;;;;;;5057179;28;20538;-67
2021/04/19 01:40:14;;;;;;;15.15;11.70;;;;;;;;;;5055874;28;20212;-67
2021/04/19 01:42:41;;;;;;;15.10;10.45;;;;;;;;;;5055708;28;20709;-67
2021/04/19 01:45:08;;;;;;;15.23;9.27;;;;;;;;;;5055811;28;20280;-67
2021/04/19 01:47:35;;;;;;;12.82;10.48;;;;;;;;;;5056051;28;20676;-67
2021/04/19 01:50:12;;;;;;;11.90;10.30;;;;;;;;;;5056121;28;20193;-67
2021/04/19 01:52:39;;;;;;;14.63;10.27;;;;;;;;;;5055506;28;20204;-67
2021/04/19 01:55:11;;;;;;;14.90;12.05;;;;;;;;;;5037532;28;20664;-67
2021/04/19 01:57:39;;;;;;;14.68;11.43;;;;;;;;;;5056469;28;20181;-67
2021/04/19 02:00:09;;;;;;;16.33;11.57;;;;;;;;;;5056346;28;20195;-67
2021/04/19 02:02:42;;;;;;;15.48;11.65;;;;;;;;;;5055473;28;20205;-67
2021/04/19 02:05:28;;;;;;;13.88;11.50;;;;;;;;;;5037762;28;20219;-67
2021/04/19 02:08:04;;;;;;;18.13;12.48;;;;;;;;;;5055142;28;20208;-67
2021/04/19 02:10:43;;;;;;;13.00;11.60;;;;;;;;;;5055984;28;20177;-67
2021/04/19 02:13:12;;;;;;;14.80;11.85;;;;;;;;;;5055785;28;20188;-67
2021/04/19 02:15:42;;;;;;;19.13;12.10;;;;;;;;;;5055944;28;20207;-67
2021/04/19 02:18:15;;;;;;;16.13;12.02;;;;;;;;;;5055812;28;20205;-67
2021/04/19 02:20:46;;;;;;;16.40;12.45;;;;;;;;;;5054917;28;20202;-67
2021/04/19 02:23:21;;;;;;;14.57;12.27;;;;;;;;;;5055389;28;20213;-67
2021/04/19 02:25:50;;;;;;;14.23;11.55;;;;;;;;;;5056104;28;20227;-67
2021/04/19 02:28:23;;;;;;;27.48;19.83;;;;;;;;;;5055299;28;20552;-67
2021/04/19 02:30:52;;;;;;;27.05;15.73;;;;;;;;;;5054825;28;20211;-67
2021/04/19 02:33:20;;;;;;;18.65;14.85;;;;;;;;;;5055949;28;20298;-67
2021/04/19 02:35:47;;;;;;;20.30;14.60;;;;;;;;;;5055369;28;20212;-67
2021/04/19 02:38:18;;;;;;;18.80;13.02;;;;;;;;;;5056112;28;20188;-67
2021/04/19 02:40:46;;;;;;;18.08;13.00;;;;;;;;;;5056758;28;20212;-67
2021/04/19 02:43:13;;;;;;;19.90;13.20;;;;;;;;;;5055413;28;20228;-66
2021/04/19 02:45:41;;;;;;;17.35;13.20;;;;;;;;;;5054709;28;20232;-67
2021/04/19 02:48:09;;;;;;;19.88;14.18;;;;;;;;;;5055664;28;20193;-67
2021/04/19 02:50:36;;;;;;;16.98;12.90;;;;;;;;;;5055131;28;20196;-67
2021/04/19 02:53:03;;;;;;;15.85;12.90;;;;;;;;;;5054520;28;20201;-67
2021/04/19 02:55:30;;;;;;;16.85;13.68;;;;;;;;;;5054924;28;20204;-67
2021/04/19 02:58:02;;;;;;;20.17;15.18;;;;;;;;;;5055292;28;20201;-67
2021/04/19 03:00:31;;;;;;;18.35;15.75;;;;;;;;;;5054763;28;20274;-67
2021/04/19 03:03:00;;;;;;;19.25;14.13;;;;;;;;;;5054253;28;20204;-67
2021/04/19 03:05:27;;;;;;;18.67;14.95;;;;;;;;;;5054972;28;20615;-67
2021/04/19 03:07:57;;;;;;;24.30;17.13;;;;;;;;;;5054714;28;20193;-67
2021/04/19 03:10:24;;;;;;;20.83;17.33;;;;;;;;;;5054388;28;20192;-66
2021/04/19 03:12:55;;;;;;;21.95;19.35;;;;;;;;;;5052784;28;20207;-66
2021/04/19 03:15:29;;;;;;;25.02;17.88;;;;;;;;;;5053331;28;20196;-66
2021/04/19 03:17:57;;;;;;;16.00;13.98;;;;;;;;;;5055239;28;20196;-67
2021/04/19 03:20:29;;;;;;;17.40;14.85;;;;;;;;;;5055378;28;20197;-67
2021/04/19 03:22:56;;;;;;;18.20;15.05;;;;;;;;;;5054529;28;20224;-67
2021/04/19 03:25:28;;;;;;;21.75;14.32;;;;;;;;;;5055463;28;20199;-67
2021/04/19 03:27:58;;;;;;;21.83;14.88;;;;;;;;;;5055756;28;20652;-67
2021/04/19 03:30:24;;;;;;;20.27;15.05;;;;;;;;;;5055350;28;20197;-67
2021/04/19 03:32:52;;;;;;;17.65;13.57;;;;;;;;;;5055256;28;20648;-67
2021/04/19 03:35:22;;;;;;;19.90;14.50;;;;;;;;;;5055499;28;20203;-67
2021/04/19 03:37:50;;;;;;;17.98;13.32;;;;;;;;;;5054829;28;20192;-67
2021/04/19 03:40:27;;;;;;;18.65;15.10;;;;;;;;;;5057140;28;20688;-67
2021/04/19 03:42:55;;;;;;;21.13;14.80;;;;;;;;;;5054000;28;20228;-67
2021/04/19 03:45:24;;;;;;;20.17;14.77;;;;;;;;;;5037140;28;20204;-67
2021/04/19 03:47:56;;;;;;;20.17;15.80;;;;;;;;;;5055338;28;20176;-67
2021/04/19 03:50:23;;;;;;;18.08;15.75;;;;;;;;;;5054775;28;20193;-67
2021/04/19 03:52:51;;;;;;;19.67;14.85;;;;;;;;;;5054286;28;20644;-67
2021/04/19 03:55:18;;;;;;;18.50;15.20;;;;;;;;;;5054683;28;20280;-67
2021/04/19 03:57:48;;;;;;;22.00;16.80;;;;;;;;;;5055026;28;20188;-67
2021/04/19 04:00:20;;;;;;;18.08;15.45;;;;;;;;;;5054925;28;20213;-67
2021/04/19 04:02:51;;;;;;;23.70;15.13;;;;;;;;;;5056149;28;20235;-67
2021/04/19 04:05:18;;;;;;;19.98;15.95;;;;;;;;;;5058693;28;20196;-67
2021/04/19 04:07:46;;;;;;;20.02;15.30;;;;;;;;;;5058498;28;20239;-67
2021/04/19 04:10:13;;;;;;;24.25;16.02;;;;;;;;;;5058851;28;20210;-67
2021/04/19 04:12:39;;;;;;;23.20;16.00;;;;;;;;;;5058136;28;20189;-67
2021/04/19 04:15:06;;;;;;;23.20;16.42;;;;;;;;;;5041209;28;20268;-67
2021/04/19 04:17:33;;;;;;;24.10;16.05;;;;;;;;;;5058643;28;20212;-67
2021/04/19 04:19:59;;;;;;;25.38;15.43;;;;;;;;;;5058150;28;20267;-67
2021/04/19 04:22:26;;;;;;;20.75;17.00;;;;;;;;;;5058090;28;20204;-67
2021/04/19 04:24:53;;;;;;;25.98;16.40;;;;;;;;;;5057415;28;20193;-67
2021/04/19 04:27:20;;;;;;;19.05;15.20;;;;;;;;;;5057865;28;20243;-67
2021/04/19 04:29:47;;;;;;;20.92;16.45;;;;;;;;;;5056984;28;20200;-67
2021/04/19 04:32:14;;;;;;;29.05;20.17;;;;;;;;;;5038999;28;20231;-67
2021/04/19 04:34:40;;;;;;;27.35;18.40;;;;;;;;;;5057686;28;20296;-67
2021/04/19 04:37:07;;;;;;;25.58;16.60;;;;;;;;;;5056817;28;20212;-67
2021/04/19 04:39:34;;;;;;;19.85;15.85;;;;;;;;;;5057620;28;20204;-67
2021/04/19 04:42:02;;;;;;;22.13;16.05;;;;;;;;;;5056921;28;20244;-67
2021/04/19 04:44:34;;;;;;;29.15;16.33;;;;;;;;;;5057153;28;20196;-67
2021/04/19 04:47:06;;;;;;;23.17;16.23;;;;;;;;;;5039123;28;20232;-67
2021/04/19 04:49:36;;;;;;;24.25;17.77;;;;;;;;;;5057052;28;20273;-67
2021/04/19 04:52:03;;;;;;;20.42;17.52;;;;;;;;;;5056606;28;20268;-67
2021/04/19 04:54:30;;;;;;;21.38;17.02;;;;;;;;;;5055842;28;20197;-67
2021/04/19 04:56:59;;;;;;;24.73;16.77;;;;;;;;;;5056230;28;20201;-67
2021/04/19 04:59:27;;;;;;;24.45;17.33;;;;;;;;;;5056290;28;20730;-67
2021/04/19 05:01:54;;;;;;;23.40;17.27;;;;;;;;;;5056357;28;20200;-67
2021/04/19 05:04:21;;;;;;;25.60;16.75;;;;;;;;;;5056583;28;20199;-67
2021/04/19 05:06:48;;;;;;;22.40;16.90;;;;;;;;;;5056175;28;20754;-67
2021/04/19 05:09:15;;;;;;;23.08;18.17;;;;;;;;;;5056140;28;20193;-67
2021/04/19 05:11:43;;;;;;;27.85;17.90;;;;;;;;;;5037636;28;20196;-67
2021/04/19 05:14:09;;;;;;;20.90;16.50;;;;;;;;;;5056100;28;20200;-67
2021/04/19 05:16:37;;;;;;;23.52;18.33;;;;;;;;;;5056887;28;20204;-67
2021/04/19 05:19:05;;;;;;;30.33;19.65;;;;;;;;;;5055496;28;20189;-66
2021/04/19 05:21:33;;;;;;;22.92;18.30;;;;;;;;;;5037412;28;20201;-67
2021/04/19 05:23:59;;;;;;;25.90;19.63;;;;;;;;;;5055659;28;20208;-67
2021/04/19 05:26:27;;;;;;;23.65;18.80;;;;;;;;;;5055873;28;20212;-67
2021/04/19 05:28:54;;;;;;;25.67;18.40;;;;;;;;;;5056582;28;20211;-67
2021/04/19 05:31:21;;;;;;;28.25;20.15;;;;;;;;;;5055563;28;20640;-67
2021/04/19 05:33:48;;;;;;;24.02;19.10;;;;;;;;;;5055606;28;20193;-67
2021/04/19 05:36:16;;;;;;;29.50;16.75;;;;;;;;;;5055551;28;20208;-67
2021/04/19 05:38:43;;;;;;;29.30;20.00;;;;;;;;;;5054749;28;20257;-67
2021/04/19 05:41:11;;;;;;;29.00;20.10;;;;;;;;;;5054491;28;20213;-67
2021/04/19 05:43:40;;;;;;;25.98;19.45;;;;;;;;;;5055676;28;20197;-67
2021/04/19 05:46:07;;;;;;;25.60;19.30;;;;;;;;;;5054694;28;20225;-67
2021/04/19 05:48:33;;;;;;;28.38;20.75;;;;;;;;;;5054738;28;20636;-67
2021/04/19 05:51:03;;;;;;;26.77;19.58;;;;;;;;;;5055504;28;20200;-67
2021/04/19 05:53:31;;;;;;;25.92;20.63;;;;;;;;;;5054292;28;20220;-68
2021/04/19 05:55:58;;;;;;;23.95;19.42;;;;;;;;;;5054782;28;20246;-67
2021/04/19 05:58:46;;;;;;;38.63;18.98;;;;;;;;;;5052788;28;20211;-67
2021/04/19 06:01:16;;;;;;;29.15;19.77;;;;;;;;;;5054945;28;20193;-67
2021/04/19 06:04:01;;;;;;;26.52;20.35;;;;;;;;;;5054676;28;20196;-67
2021/04/19 06:06:42;;;;;;;23.83;19.20;;;;;;;;;;5055539;28;20220;-67
2021/04/19 06:09:35;;;;;;;30.00;19.60;;;;;;;;;;5036835;28;20208;-67
2021/04/19 06:12:06;;;;;;;24.75;17.35;;;;;;;;;;5050584;28;20204;-66
2021/04/19 06:14:35;;;;;;;29.05;18.90;;;;;;;;;;5056328;28;20192;-66
2021/04/19 06:17:03;;;;;;;29.25;19.45;;;;;;;;;;5055760;28;20192;-67
2021/04/19 06:19:31;;;;;;;22.42;19.40;;;;;;;;;;5056190;28;20189;-66
2021/04/19 06:21:58;;;;;;;27.02;19.92;;;;;;;;;;5055210;28;20205;-66
2021/04/19 06:24:24;;;;;;;26.60;19.67;;;;;;;;;;5056957;28;20192;-66
2021/04/19 06:26:51;;;;;;;24.83;18.10;;;;;;;;;;5037968;28;20208;-66
2021/04/19 06:29:25;;;;;;;24.95;18.75;;;;;;;;;;5054534;28;20203;-66
2021/04/19 06:31:52;;;;;;;23.00;18.50;;;;;;;;;;5055289;28;20231;-66
2021/04/19 06:34:19;;;;;;;28.85;18.08;;;;;;;;;;5055510;28;20195;-66
2021/04/19 06:36:46;;;;;;;23.88;18.60;;;;;;;;;;5054233;28;20287;-66
2021/04/19 06:39:14;;;;;;;29.52;18.85;;;;;;;;;;5053830;28;20207;-66
2021/04/19 06:41:41;;;;;;;23.38;18.38;;;;;;;;;;5036476;28;20239;-66
2021/04/19 06:44:08;;;;;;;23.70;18.67;;;;;;;;;;5036635;28;20220;-67
2021/04/19 06:46:36;;;;;;;24.95;18.42;;;;;;;;;;5054552;28;20569;-67
2021/04/19 06:49:04;;;;;;;21.73;16.80;;;;;;;;;;5056056;28;20188;-67
2021/04/19 06:51:31;;;;;;;21.80;17.80;;;;;;;;;;5054662;28;20192;-67
2021/04/19 06:53:58;;;;;;;23.27;17.08;;;;;;;;;;5055046;28;20238;-67
2021/04/19 06:56:26;;;;;;;22.63;18.90;;;;;;;;;;5055168;28;20205;-67
2021/04/19 06:58:54;;;;;;;31.08;20.70;;;;;;;;;;5054609;28;20189;-68
2021/04/19 07:01:22;;;;;;;24.88;19.67;;;;;;;;;;5055884;28;20199;-67
2021/04/19 07:04:01;;;;;;;24.70;19.63;;;;;;;;;;5057534;28;20552;-68
2021/04/19 07:06:32;;;;;;;21.83;18.40;;;;;;;;;;5056869;28;20224;-67
2021/04/19 07:09:13;;;;;;;29.70;18.95;;;;;;;;;;5057363;28;20592;-67
2021/04/19 07:11:41;;;;;;;24.55;19.67;;;;;;;;;;5059575;28;20214;-67
2021/04/19 07:14:08;;;;;;;24.08;20.00;;;;;;;;;;5057414;28;20197;-67
2021/04/19 07:16:35;;;;;;;25.15;18.58;;;;;;;;;;5056859;28;20200;-67
2021/04/19 07:19:02;;;;;;;26.50;19.30;;;;;;;;;;5057028;28;20196;-67
2021/04/19 07:21:29;;;;;;;26.90;19.90;;;;;;;;;;5055731;28;20192;-68
2021/04/19 07:23:56;;;;;;;27.30;17.88;;;;;;;;;;5056416;28;20211;-68
2021/04/19 07:26:23;;;;;;;29.40;18.88;;;;;;;;;;5055163;28;20682;-67
2021/04/19 07:28:50;;;;;;;28.35;20.33;;;;;;;;;;5056692;28;20192;-67
2021/04/19 07:31:17;;;;;;;25.67;18.95;;;;;;;;;;5055138;28;20216;-67
2021/04/19 07:33:44;;;;;;;27.13;20.05;;;;;;;;;;5056567;28;20199;-67
2021/04/19 07:36:28;;;;;;;26.38;20.85;;;;;;;;;;5038273;28;20205;-67
2021/04/19 07:38:55;;;;;;;30.65;20.08;;;;;;;;;;5060791;28;20181;-67
2021/04/19 07:41:23;;;;;;;33.67;21.40;;;;;;;;;;5059620;28;20231;-67
2021/04/19 07:43:49;;;;;;;27.13;19.65;;;;;;;;;;5060952;28;20561;-67
2021/04/19 07:46:21;;;;;;;36.65;18.33;;;;;;;;;;5058863;28;20212;-67
2021/04/19 07:48:51;;;;;;;28.02;21.67;;;;;;;;;;5058543;28;20208;-67
2021/04/19 07:51:29;;;;;;;28.15;19.95;;;;;;;;;;5061112;28;20201;-67
2021/04/19 07:54:11;;;;;;;31.83;21.25;;;;;;;;;;5058487;28;20200;-67
2021/04/19 07:56:41;;;;;;;27.73;20.58;;;;;;;;;;5057345;28;20192;-67
2021/04/19 07:59:23;;;;;;;31.42;20.63;;;;;;;;;;5057250;28;20189;-67
2021/04/19 08:02:00;;;;;;;26.60;20.65;;;;;;;;;;5057646;28;20204;-68
2021/04/19 08:04:27;;;;;;;31.48;21.98;;;;;;;;;;5058142;28;20541;-66
2021/04/19 08:06:54;;;;;;;32.65;22.20;;;;;;;;;;5058836;28;20218;-66
2021/04/19 08:09:25;;;;;;;32.60;23.83;;;;;;;;;;5058224;28;20189;-67
2021/04/19 08:12:01;;;;;;;30.83;20.15;;;;;;;;;;5039275;28;20209;-67
2021/04/19 08:14:31;;;;;;;32.78;23.17;;;;;;;;;;5039494;28;20631;-67
2021/04/19 08:17:11;;;;;;;31.48;22.55;;;;;;;;;;5057813;28;20204;-67
2021/04/19 08:19:39;;;;;;;28.63;22.55;;;;;;;;;;5058049;28;20204;-67
2021/04/19 08:22:13;;;;;;;33.33;22.48;;;;;;;;;;5058687;28;20193;-67
2021/04/19 08:24:40;;;;;;;25.95;21.20;;;;;;;;;;5058160;28;20189;-68
2021/04/19 08:27:07;;;;;;;32.85;22.10;;;;;;;;;;5039414;28;20229;-64
2021/04/19 08:29:37;;;;;;;30.40;21.55;;;;;;;;;;5038497;28;20234;-65
2021/04/19 08:32:08;;;;;;;31.85;22.27;;;;;;;;;;5039412;28;20206;-65
2021/04/19 08:34:36;;;;;;;29.23;22.00;;;;;;;;;;5038122;28;20641;-65
2021/04/19 08:37:03;;;;;;;29.65;21.70;;;;;;;;;;5056181;28;20197;-64
2021/04/19 08:39:33;;;;;;;27.85;20.73;;;;;;;;;;5038056;28;20212;-64
2021/04/19 08:42:01;;;;;;;31.95;22.40;;;;;;;;;;5055679;28;20237;-64
2021/04/19 08:44:31;;;;;;;30.48;21.27;;;;;;;;;;5055465;28;20200;-65
2021/04/19 08:46:59;;;;;;;28.33;21.17;;;;;;;;;;5056834;28;20201;-65
2021/04/19 08:49:26;;;;;;;25.40;20.13;;;;;;;;;;5055530;28;20192;-65
2021/04/19 08:51:53;;;;;;;28.25;21.85;;;;;;;;;;5057348;28;20188;-65
2021/04/19 08:54:21;;;;;;;25.23;20.88;;;;;;;;;;5045877;28;20205;-64
2021/04/19 08:56:48;;;;;;;34.85;21.83;;;;;;;;;;5038082;28;20236;-65
2021/04/19 08:59:16;;;;;;;28.08;23.48;;;;;;;;;;5055380;28;20201;-65
2021/04/19 09:01:43;;;;;;;29.73;21.35;;;;;;;;;;5055536;28;20193;-64
2021/04/19 09:04:10;;;;;;;24.95;19.75;;;;;;;;;;5037683;28;20204;-65
2021/04/19 09:06:44;;;;;;;23.60;19.85;;;;;;;;;;5055434;28;20280;-66
2021/04/19 09:09:14;;;;;;;24.73;20.83;;;;;;;;;;5055296;28;20215;-65
2021/04/19 09:11:41;;;;;;;37.00;21.95;;;;;;;;;;5055232;28;20189;-65
2021/04/19 09:14:12;;;;;;;30.88;21.08;;;;;;;;;;5037247;28;20200;-65
2021/04/19 09:16:39;;;;;;;29.17;21.08;;;;;;;;;;5036966;28;20205;-65
2021/04/19 09:19:07;;;;;;;28.48;20.67;;;;;;;;;;5054515;28;20606;-65
2021/04/19 09:21:37;;;;;;;25.48;19.92;;;;;;;;;;5055229;28;20196;-65
2021/04/19 09:24:05;;;;;;;33.83;24.83;;;;;;;;;;5054684;28;20201;-65
2021/04/19 09:26:51;;;;;;;30.38;23.08;;;;;;;;;;5037190;28;20209;-65
2021/04/19 09:29:27;;;;;;;25.08;20.90;;;;;;;;;;5055098;28;20184;-65
2021/04/19 09:31:56;;;;;;;28.23;22.73;;;;;;;;;;5054892;28;20716;-65
2021/04/19 09:34:48;;;;;;;30.80;22.50;;;;;;;;;;5055008;28;20272;-65
2021/04/19 09:37:41;;;;;;;27.70;21.55;;;;;;;;;;5046330;28;20259;-65
2021/04/19 09:40:15;;;;;;;25.27;20.58;;;;;;;;;;5054501;28;20242;-65
2021/04/19 09:43:02;;;;;;;28.05;22.23;;;;;;;;;;5055330;28;20315;-65
2021/04/19 09:45:47;;;;;;;31.88;23.40;;;;;;;;;;5036301;28;20564;-65
2021/04/19 09:48:26;;;;;;;32.45;22.88;;;;;;;;;;5054651;28;20224;-65
2021/04/19 09:50:53;;;;;;;31.63;22.88;;;;;;;;;;5054051;28;20602;-65
2021/04/19 09:53:20;;;;;;;29.48;22.77;;;;;;;;;;5054779;28;20189;-64
2021/04/19 09:55:47;;;;;;;31.95;23.27;;;;;;;;;;5054281;28;20191;-65
2021/04/19 09:58:14;;;;;;;33.17;23.45;;;;;;;;;;5037650;28;20193;-64
2021/04/19 10:00:42;;;;;;;37.10;23.63;;;;;;;;;;5053719;28;20192;-65
2021/04/19 10:03:09;;;;;;;32.22;22.52;;;;;;;;;;5054317;28;20195;-64
2021/04/19 10:05:41;;;;;;;32.65;23.05;;;;;;;;;;5054516;28;20284;-64
2021/04/19 10:08:08;;;;;;;31.23;23.00;;;;;;;;;;5054352;28;20201;-64
2021/04/19 10:10:35;;;;;;;32.30;22.90;;;;;;;;;;5054434;28;20185;-64
2021/04/19 10:13:02;;;;;;;29.40;22.35;;;;;;;;;;5035931;28;20215;-65
2021/04/19 10:15:29;;;;;;;32.63;22.65;;;;;;;;;;5053987;28;20557;-64
2021/04/19 10:17:58;;;;;;;33.40;24.13;;;;;;;;;;5054193;28;20204;-64
2021/04/19 10:20:26;;;;;;;26.33;21.42;;;;;;;;;;5053428;28;20197;-63
2021/04/19 10:23:05;;;;;;;33.60;22.63;;;;;;;;;;5054039;28;20196;-63
2021/04/19 10:25:32;;;;;;;31.70;23.95;;;;;;;;;;5054054;28;20204;-63
2021/04/19 10:27:59;;;;;;;31.88;22.88;;;;;;;;;;5054784;28;20229;-63
2021/04/19 10:30:26;;;;;;;35.17;23.20;;;;;;;;;;5054571;28;20213;-63
2021/04/19 10:32:53;;;;;;;32.40;23.15;;;;;;;;;;5054632;28;20200;-63
2021/04/19 10:35:29;;;;;;;32.08;24.63;;;;;;;;;;5053762;28;20189;-62
2021/04/19 10:37:56;;;;;;;29.25;22.55;;;;;;;;;;5053149;28;20561;-63
2021/04/19 10:40:23;;;;;;;31.85;21.10;;;;;;;;;;5036237;28;20270;-62
2021/04/19 10:42:50;;;;;;;36.78;23.13;;;;;;;;;;5053113;28;20243;-63
2021/04/19 10:45:17;;;;;;;33.20;22.85;;;;;;;;;;5053617;28;20199;-64
2021/04/19 10:47:44;;;;;;;31.95;22.73;;;;;;;;;;5053604;28;20231;-64
2021/04/19 10:50:11;;;;;;;38.45;23.35;;;;;;;;;;5053709;28;20200;-64
2021/04/19 10:52:38;;;;;;;31.42;23.02;;;;;;;;;;5053229;28;20555;-63
2021/04/19 10:55:09;;;;;;;28.98;22.23;;;;;;;;;;5053316;28;20268;-61
2021/04/19 10:57:36;;;;;;;28.35;21.40;;;;;;;;;;5053418;28;20551;-63
2021/04/19 11:00:05;;;;;;;27.52;21.48;;;;;;;;;;5054344;28;20215;-63
2021/04/19 11:02:32;;;;;;;27.38;20.95;;;;;;;;;;5037310;28;20203;-64
2021/04/19 11:04:59;;;;;;;31.00;21.80;;;;;;;;;;5052940;28;20597;-65
2021/04/19 11:07:29;;;;;;;31.70;20.27;;;;;;;;;;5053243;28;20216;-64
2021/04/19 11:10:12;;;;;;;25.80;19.88;;;;;;;;;;5035530;28;20209;-65
2021/04/19 11:12:39;;;;;;;25.38;18.73;;;;;;;;;;5057395;28;20545;-65
2021/04/19 11:15:12;;;;;;;26.92;19.38;;;;;;;;;;5058555;28;20552;-65
2021/04/19 11:17:39;;;;;;;25.45;19.08;;;;;;;;;;5057556;28;20176;-64
2021/04/19 11:20:32;;;;;;;26.08;18.35;;;;;;;;;;5058550;28;20704;-64
2021/04/19 11:22:59;;;;;;;23.45;19.65;;;;;;;;;;5054210;28;20209;-64
2021/04/19 11:25:30;;;;;;;28.38;18.85;;;;;;;;;;5056524;28;20291;-64
2021/04/19 11:28:30;;;;;;;22.50;17.55;;;;;;;;;;5057059;28;20228;-64
2021/04/19 11:30:57;;;;;;;21.67;18.03;;;;;;;;;;5042564;28;20205;-64
2021/04/19 11:33:25;;;;;;;22.20;17.70;;;;;;;;;;5056998;28;20626;-63
2021/04/19 11:35:57;;;;;;;27.03;19.47;;;;;;;;;;5038992;28;20623;-63
2021/04/19 11:38:25;;;;;;;25.73;18.73;;;;;;;;;;5057021;28;20894;-63
2021/04/19 11:40:53;;;;;;;24.63;18.73;;;;;;;;;;5056355;28;21185;-63
2021/04/19 11:43:22;;;;;;;29.00;20.17;;;;;;;;;;5057573;28;20611;-63
2021/04/19 11:45:59;;;;;;;26.17;19.27;;;;;;;;;;5057053;28;20558;-63
2021/04/19 11:48:26;;;;;;;25.30;19.92;;;;;;;;;;5058673;28;20576;-64
2021/04/19 11:50:53;;;;;;;24.67;19.85;;;;;;;;;;5057415;28;20195;-63
2021/04/19 11:53:21;;;;;;;24.05;20.48;;;;;;;;;;5056787;28;20194;-63
2021/04/19 11:55:48;;;;;;;19.92;16.98;;;;;;;;;;5057208;28;20558;-65
2021/04/19 11:58:15;;;;;;;25.43;19.13;;;;;;;;;;5057464;28;20208;-63
2021/04/19 12:00:42;;;;;;;21.13;18.30;;;;;;;;;;5056815;28;20967;-65
2021/04/19 12:03:09;;;;;;;21.37;19.10;;;;;;;;;;5055987;28;20619;-64
2021/04/19 12:05:35;;;;;;;20.03;17.87;;;;;;;;;;5057676;28;20630;-64
2021/04/19 12:08:02;;;;;;;25.57;20.00;;;;;;;;;;5056239;28;20659;-64
2021/04/19 12:10:29;;;;;;;22.43;19.33;;;;;;;;;;5057275;28;20595;-64
2021/04/19 12:12:56;;;;;;;22.73;19.43;;;;;;;;;;5057277;28;20595;-64
2021/04/19 12:15:25;;;;;;;23.30;18.60;;;;;;;;;;5056784;28;20605;-64
2021/04/19 12:17:52;;;;;;;22.73;19.33;;;;;;;;;;5056205;28;20684;-64
2021/04/19 12:20:18;;;;;;;22.23;18.00;;;;;;;;;;5055337;28;20627;-64
2021/04/19 12:22:45;;;;;;;22.90;18.87;;;;;;;;;;5055278;28;20623;-64
2021/04/19 12:25:12;;;;;;;23.70;17.80;;;;;;;;;;5056186;28;20702;-64
2021/04/19 12:27:39;;;;;;;20.83;17.70;;;;;;;;;;5053975;28;20655;-63
2021/04/19 12:30:06;;;;;;;22.67;18.80;;;;;;;;;;5051778;28;20630;-64
2021/04/19 12:32:33;;;;;;;27.00;19.23;;;;;;;;;;5055621;28;20627;-64
2021/04/19 12:35:00;;;;;;;25.03;19.33;;;;;;;;;;5038670;28;20673;-65
2021/04/19 12:37:27;;;;;;;27.77;19.47;;;;;;;;;;5055483;28;20619;-64
2021/04/19 12:39:53;;;;;;;25.33;20.43;;;;;;;;;;5055860;28;20619;-64
2021/04/19 12:42:20;;;;;;;23.85;20.73;;;;;;;;;;5021410;28;20654;-64
2021/04/19 12:44:47;;;;;;;26.33;19.60;;;;;;;;;;5055087;28;20632;-64
2021/04/19 12:47:13;;;;;;;26.92;19.88;;;;;;;;;;5056615;28;20213;-64
2021/04/19 12:49:49;;;;;;;23.52;18.05;;;;;;;;;;5023604;28;20201;-64
2021/04/19 12:52:16;;;;;;;24.35;17.63;;;;;;;;;;5006933;28;20226;-64
2021/04/19 12:54:43;;;;;;;24.27;19.40;;;;;;;;;;5038237;28;20655;-63
2021/04/19 12:57:09;;;;;;;21.37;18.57;;;;;;;;;;5055201;28;20619;-64
2021/04/19 12:59:36;;;;;;;22.07;17.87;;;;;;;;;;5039811;28;20623;-64
2021/04/19 13:02:04;;;;;;;20.17;17.23;;;;;;;;;;5058714;28;20607;-65
2021/04/19 13:04:31;;;;;;;21.53;18.00;;;;;;;;;;5057397;28;20595;-65
2021/04/19 13:06:57;;;;;;;18.03;16.13;;;;;;;;;;5055292;28;20599;-66
2021/04/19 13:09:24;;;;;;;19.10;16.97;;;;;;;;;;5054697;28;20658;-66
2021/04/19 13:11:51;;;;;;;19.80;17.80;;;;;;;;;;5055330;28;20602;-66
2021/04/19 13:14:17;;;;;;;22.60;18.70;;;;;;;;;;5055303;28;21157;-66
2021/04/19 13:16:44;;;;;;;22.10;18.57;;;;;;;;;;5054899;28;20638;-66
2021/04/19 13:19:11;;;;;;;21.40;17.83;;;;;;;;;;5037659;28;20623;-65
2021/04/19 13:21:37;;;;;;;21.87;18.40;;;;;;;;;;5055048;28;20595;-65
2021/04/19 13:24:06;;;;;;;22.03;17.93;;;;;;;;;;5055364;28;20615;-66
2021/04/19 13:26:33;;;;;;;18.40;16.50;;;;;;;;;;5055298;28;21134;-66
2021/04/19 13:29:00;;;;;;;20.27;18.23;;;;;;;;;;5054296;28;21204;-66
2021/04/19 13:31:27;;;;;;;20.90;18.37;;;;;;;;;;5054874;28;20614;-66
2021/04/19 13:33:53;;;;;;;20.27;17.40;;;;;;;;;;5055017;28;20611;-66
2021/04/19 13:36:20;;;;;;;18.77;16.77;;;;;;;;;;5055074;28;20617;-66
2021/04/19 13:38:47;;;;;;;23.70;17.83;;;;;;;;;;5055109;28;20599;-67
2021/04/19 13:41:13;;;;;;;18.53;16.53;;;;;;;;;;5054767;28;20741;-66
2021/04/19 13:43:40;;;;;;;18.67;16.53;;;;;;;;;;5055062;28;20562;-66
2021/04/19 13:46:07;;;;;;;16.60;14.90;;;;;;;;;;5054408;28;21098;-66
2021/04/19 13:48:33;;;;;;;18.80;16.50;;;;;;;;;;5054472;28;20645;-64
2021/04/19 13:51:00;;;;;;;23.60;18.10;;;;;;;;;;5053932;28;21152;-65
2021/04/19 13:53:27;;;;;;;19.03;15.90;;;;;;;;;;5054654;28;20614;-65
2021/04/19 13:55:53;;;;;;;18.97;17.07;;;;;;;;;;5054367;28;20609;-65
2021/04/19 13:58:20;;;;;;;19.37;17.27;;;;;;;;;;5054948;28;20696;-65
2021/04/19 14:00:47;;;;;;;19.17;17.20;;;;;;;;;;5036038;28;20641;-66
2021/04/19 14:03:14;;;;;;;19.37;16.63;;;;;;;;;;5054508;28;20966;-67
2021/04/19 14:05:40;;;;;;;19.90;17.57;;;;;;;;;;5054669;28;20599;-65
2021/04/19 14:08:08;;;;;;;21.60;19.30;;;;;;;;;;5054474;28;20657;-66
2021/04/19 14:10:34;;;;;;;23.93;19.97;;;;;;;;;;5054205;28;20705;-65
2021/04/19 14:13:01;;;;;;;22.77;20.37;;;;;;;;;;5053676;28;20600;-65
2021/04/19 14:15:31;;;;;;;22.57;19.77;;;;;;;;;;5053565;28;20611;-65
2021/04/19 14:17:58;;;;;;;25.70;20.87;;;;;;;;;;5053826;28;20615;-66
2021/04/19 14:20:26;;;;;;;25.83;20.10;;;;;;;;;;5053766;28;20629;-66
2021/04/19 14:22:52;;;;;;;26.90;19.63;;;;;;;;;;5048090;28;20713;-66
2021/04/19 14:25:19;;;;;;;24.90;17.20;;;;;;;;;;5054043;28;20611;-66
2021/04/19 14:27:46;;;;;;;20.33;17.57;;;;;;;;;;5053624;28;21180;-65
2021/04/19 14:30:13;;;;;;;21.33;17.67;;;;;;;;;;5033809;28;20615;-65